Terminal Aerodrome Forecast
Issued by NWS

Home | Current Version | Previous Version | Text Only | Print | Product List | Glossary On
Versions: 1 2 3 4 5 6 7 8 9 10 11 12 13 14 15 16 17 18 19 20 21 22 23 24 25 26 27 28 29 30 31 32 33 34 35 36 37 38 39 40 41 42 43 44 45 46 47 48 49 50
535
FTUS43 KMKX 301741
TAFENW
TAF
KENW 301741Z 3018/0118 08013KT 6SM -RA OVC060
     FM301900 08014KT 3SM RA OVC040
     FM302100 05016KT 2SM RA OVC025
     FM302300 05015G23KT 3SM RA OVC015
     FM010000 05014G22KT 5SM RA OVC008
     FM010400 04013KT P6SM VCSH OVC005=

USA.gov is the U.S. government's official web portal to all federal, state and local government web resources and services.